createdAt,value
2022-08-14T00:01:54.575Z,94454.69
2022-08-14T00:04:34.770Z,94461.53
2022-08-14T00:07:09.918Z,94456.03
2022-08-14T00:09:55.144Z,94458.38
2022-08-14T00:12:44.174Z,94455.19
2022-08-14T00:15:16.971Z,94449.91
2022-08-14T00:17:47.507Z,94445.16
2022-08-14T00:20:30.388Z,94434.13
2022-08-14T00:23:11.865Z,94430.22
2022-08-14T00:25:42.022Z,94423.28
2022-08-14T00:28:15.504Z,94436.16
2022-08-14T00:30:46.922Z,94430.34
2022-08-14T00:33:16.053Z,94424.31
2022-08-14T00:36:36.035Z,94411.19
2022-08-14T00:38:32.029Z,94421.16
2022-08-14T00:41:02.667Z,94413.28
2022-08-14T00:43:32.200Z,94407.25
2022-08-14T00:46:08.201Z,94419.03
2022-08-14T00:48:50.405Z,94413.41
2022-08-14T00:51:18.417Z,94421.34
2022-08-14T00:53:45.276Z,94419.78
2022-08-14T00:56:15.582Z,94416.06
2022-08-14T00:58:45.322Z,94405.78
2022-08-14T01:01:18.851Z,94418.00
2022-08-14T01:03:46.391Z,94397.53
2022-08-14T01:06:21.318Z,94414.78
2022-08-14T01:08:51.237Z,94405.25
2022-08-14T01:11:24.495Z,94407.81
2022-08-14T01:13:55.967Z,94397.84
2022-08-14T01:16:31.343Z,94397.63
2022-08-14T01:19:19.617Z,94406.50
2022-08-14T01:21:53.422Z,94406.50
2022-08-14T01:24:24.635Z,94388.13
2022-08-14T01:27:00.252Z,94391.03
2022-08-14T01:29:59.143Z,94393.34
2022-08-14T01:32:23.143Z,94388.34
2022-08-14T01:35:17.701Z,94384.22
2022-08-14T01:37:54.471Z,94381.53
2022-08-14T01:40:25.602Z,94380.41
2022-08-14T01:43:00.329Z,94373.00
2022-08-14T01:45:31.411Z,94382.94
2022-08-14T01:48:13.577Z,94382.72
2022-08-14T01:50:42.753Z,94379.03
2022-08-14T01:53:11.434Z,94370.94
2022-08-14T01:55:40.657Z,94382.94
2022-08-14T01:58:20.157Z,94379.25
2022-08-14T02:00:55.086Z,94360.91
2022-08-14T02:03:30.855Z,94363.38
2022-08-14T02:06:31.793Z,94376.69
2022-08-14T02:08:53.375Z,94378.28
2022-08-14T02:11:24.126Z,94378.78
2022-08-14T02:14:07.387Z,94380.81
2022-08-14T02:16:55.454Z,94388.72
2022-08-14T02:19:27.423Z,94377.13
2022-08-14T02:22:03.173Z,94370.28
2022-08-14T02:24:40.072Z,94371.94
2022-08-14T02:28:26.016Z,94361.34
2022-08-14T02:30:01.195Z,94357.66
2022-08-14T02:32:46.452Z,94341.66
2022-08-14T02:35:18.718Z,94342.44
2022-08-14T02:37:49.085Z,94337.16
2022-08-14T02:40:18.993Z,94345.34
2022-08-14T02:42:55.317Z,94341.00
2022-08-14T02:45:38.821Z,94352.09
2022-08-14T02:49:02.532Z,94352.69
2022-08-14T02:51:09.056Z,94357.03
2022-08-14T02:53:37.381Z,94359.13
2022-08-14T02:56:10.160Z,94367.06
2022-08-14T02:58:52.814Z,94356.56
2022-08-14T03:01:26.121Z,94356.00
2022-08-14T03:03:59.324Z,94346.63
2022-08-14T03:06:48.983Z,94355.00
2022-08-14T03:09:13.457Z,94338.13
2022-08-14T03:11:44.624Z,94351.47
2022-08-14T03:14:12.574Z,94354.09
2022-08-14T03:16:42.588Z,94360.91
2022-08-14T03:19:09.941Z,94339.78
2022-08-14T03:21:40.634Z,94356.00
2022-08-14T03:24:21.574Z,94355.22
2022-08-14T03:26:49.996Z,94366.19
2022-08-14T03:29:26.390Z,94363.06
2022-08-14T03:31:53.934Z,94369.53
2022-08-14T03:34:24.998Z,94380.03
2022-08-14T03:37:50.922Z,94383.53
2022-08-14T03:40:00.383Z,94378.91
2022-08-14T03:42:35.647Z,94394.63
2022-08-14T03:45:19.826Z,94384.19
2022-08-14T03:47:58.493Z,94368.47
2022-08-14T03:50:27.799Z,94372.13
2022-08-14T03:53:01.657Z,94390.41
2022-08-14T03:55:30.370Z,94394.13
2022-08-14T03:57:58.427Z,94391.56
2022-08-14T04:00:44.424Z,94378.47
2022-08-14T04:03:16.667Z,94395.44
2022-08-14T04:05:49.065Z,94394.28
2022-08-14T04:08:29.884Z,94392.91
2022-08-14T04:11:01.468Z,94391.22
2022-08-14T04:13:31.793Z,94395.91
2022-08-14T04:16:06.912Z,94374.38
2022-08-14T04:18:42.474Z,94381.63
2022-08-14T04:21:10.444Z,94387.69
2022-08-14T04:23:39.780Z,94378.72
2022-08-14T04:26:15.018Z,94383.59
2022-08-14T04:29:02.144Z,94367.31
2022-08-14T04:33:02.615Z,94384.53
2022-08-14T04:34:28.419Z,94394.50
2022-08-14T04:37:22.401Z,94389.22
2022-08-14T04:40:10.337Z,94386.44
2022-08-14T04:42:56.791Z,94384.09
2022-08-14T04:45:25.714Z,94390.34
2022-08-14T04:48:39.667Z,94398.69
2022-08-14T04:51:02.056Z,94396.00
2022-08-14T04:53:34.664Z,94395.50
2022-08-14T04:56:06.053Z,94396.03
2022-08-14T04:58:39.119Z,94380.31
2022-08-14T05:01:12.859Z,94392.31
2022-08-14T05:03:46.580Z,94383.38
2022-08-14T05:06:38.436Z,94387.97
2022-08-14T05:09:01.076Z,94384.03
2022-08-14T05:11:28.252Z,94390.00
2022-08-14T05:14:33.084Z,94390.53
2022-08-14T05:16:46.783Z,94389.59
2022-08-14T05:19:24.874Z,94383.25
2022-08-14T05:22:15.648Z,94381.28
2022-08-14T05:24:48.548Z,94395.50
2022-08-14T05:27:20.026Z,94394.44
2022-08-14T05:29:50.961Z,94396.13
2022-08-14T05:32:17.763Z,94400.03
2022-08-14T05:34:45.805Z,94400.63
2022-08-14T05:37:15.391Z,94374.88
2022-08-14T05:39:43.384Z,94409.44
2022-08-14T05:42:22.211Z,94406.81
2022-08-14T05:44:55.861Z,94404.09
2022-08-14T05:47:24.305Z,94408.88
2022-08-14T05:49:58.512Z,94390.53
2022-08-14T05:52:38.291Z,94398.59
2022-08-14T05:55:11.453Z,94389.34
2022-08-14T05:57:57.891Z,94364.75
2022-08-14T06:00:42.563Z,94393.34
2022-08-14T06:03:16.541Z,94384.19
2022-08-14T06:05:48.563Z,94389.66
2022-08-14T06:08:35.841Z,94401.75
2022-08-14T06:11:09.145Z,94393.34
2022-08-14T06:13:45.019Z,94393.97
2022-08-14T06:16:17.887Z,94406.44
2022-08-14T06:18:52.998Z,94409.00
2022-08-14T06:21:22.025Z,94410.16
2022-08-14T06:23:49.572Z,94417.28
2022-08-14T06:26:20.837Z,94415.59
2022-08-14T06:28:52.048Z,94419.88
2022-08-14T06:31:19.858Z,94422.19
2022-08-14T06:35:02.717Z,94414.16
2022-08-14T06:36:35.424Z,94416.25
2022-08-14T06:39:02.330Z,94419.97
2022-08-14T06:41:56.689Z,94389.31
2022-08-14T06:44:16.174Z,94433.22
2022-08-14T06:46:42.945Z,94423.19
2022-08-14T06:49:16.333Z,94420.06
2022-08-14T06:51:46.793Z,94429.41
2022-08-14T06:54:16.729Z,94426.69
2022-08-14T06:56:44.227Z,94427.88
2022-08-14T06:59:19.557Z,94421.41
2022-08-14T07:02:05.410Z,94436.00
2022-08-14T07:04:50.958Z,94430.22
2022-08-14T07:07:18.079Z,94432.66
2022-08-14T07:09:51.066Z,94431.41
2022-08-14T07:12:55.175Z,94435.50
2022-08-14T07:15:06.401Z,94439.38
2022-08-14T07:17:36.422Z,94417.56
2022-08-14T07:20:04.997Z,94438.91
2022-08-14T07:22:55.912Z,94433.63
2022-08-14T07:25:21.243Z,94432.50
2022-08-14T07:27:48.148Z,94432.38
2022-08-14T07:30:34.329Z,94429.47
2022-08-14T07:33:02.498Z,94429.19
2022-08-14T07:35:37.279Z,94424.31
2022-08-14T07:38:18.491Z,94422.75
2022-08-14T07:40:47.586Z,94392.34
2022-08-14T07:43:21.512Z,94427.59
2022-08-14T07:45:50.711Z,94424.34
2022-08-14T07:48:17.923Z,94416.34
2022-08-14T07:50:51.932Z,94427.09
2022-08-14T07:53:19.575Z,94424.75
2022-08-14T07:55:46.652Z,94428.31
2022-08-14T07:58:34.452Z,94426.16
2022-08-14T08:01:07.497Z,94437.13
2022-08-14T08:03:37.971Z,94437.50
2022-08-14T08:06:10.420Z,94435.25
2022-08-14T08:08:58.888Z,94437.69
2022-08-14T08:11:35.062Z,94435.91
2022-08-14T08:14:10.727Z,94431.66
2022-08-14T08:16:45.764Z,94441.94
2022-08-14T08:19:14.218Z,94433.94
2022-08-14T08:21:43.700Z,94420.47
2022-08-14T08:24:11.222Z,94436.91
2022-08-14T08:26:41.983Z,94428.06
2022-08-14T08:29:09.568Z,94418.50
2022-08-14T08:31:52.185Z,94419.66
2022-08-14T08:34:23.755Z,94421.63
2022-08-14T08:36:52.520Z,94420.00
2022-08-14T08:39:22.341Z,94419.19
2022-08-14T08:41:53.326Z,94411.34
2022-08-14T08:44:31.613Z,94406.06
2022-08-14T08:47:06.123Z,94412.53
2022-08-14T08:49:53.022Z,94415.06
2022-08-14T08:52:31.794Z,94414.38
2022-08-14T08:55:00.955Z,94409.50
2022-08-14T08:57:35.893Z,94421.06
2022-08-14T09:00:25.905Z,94402.88
2022-08-14T09:02:59.387Z,94405.22
2022-08-14T09:05:26.878Z,94402.69
2022-08-14T09:07:56.675Z,94403.81
2022-08-14T09:10:23.841Z,94403.59
2022-08-14T09:12:56.249Z,94401.03
2022-08-14T09:15:24.202Z,94399.88
2022-08-14T09:17:52.582Z,94403.56
2022-08-14T09:20:29.576Z,94389.47
2022-08-14T09:22:59.217Z,94399.66
2022-08-14T09:26:00.830Z,94397.31
2022-08-14T09:28:14.287Z,94400.41
2022-08-14T09:30:45.672Z,94392.97
2022-08-14T09:33:22.617Z,94395.38
2022-08-14T09:36:28.803Z,94405.56
2022-08-14T09:39:34.849Z,94400.41
2022-08-14T09:42:33.098Z,94407.28
2022-08-14T09:45:12.881Z,94407.69
2022-08-14T09:47:45.508Z,94416.03
2022-08-14T09:50:35.470Z,94408.53
2022-08-14T09:53:05.051Z,94411.25
2022-08-14T09:55:41.337Z,94410.84
2022-08-14T09:58:22.601Z,94404.16
2022-08-14T10:01:00.597Z,94411.91
2022-08-14T10:03:33.930Z,94407.25
2022-08-14T10:06:19.481Z,94402.28
2022-08-14T10:08:50.900Z,94405.00
2022-08-14T10:11:34.954Z,94398.19
2022-08-14T10:14:34.995Z,94398.13
2022-08-14T10:17:06.371Z,94368.44
2022-08-14T10:19:35.941Z,94394.31
2022-08-14T10:23:14.934Z,94399.03
2022-08-14T10:25:00.052Z,94397.00
2022-08-14T10:27:28.257Z,94390.44
2022-08-14T10:29:59.912Z,94390.16
2022-08-14T10:32:36.105Z,94381.75
2022-08-14T10:35:16.315Z,94377.69
2022-08-14T10:37:49.589Z,94369.28
2022-08-14T10:40:44.673Z,94372.78
2022-08-14T10:43:22.768Z,94376.09
2022-08-14T10:46:03.369Z,94366.06
2022-08-14T10:48:56.658Z,94361.34
2022-08-14T10:51:30.256Z,94360.22
2022-08-14T10:54:35.151Z,94355.25
2022-08-14T10:56:56.005Z,94351.69
2022-08-14T10:59:35.459Z,94353.47
2022-08-14T11:02:04.111Z,94343.22
2022-08-14T11:04:32.073Z,94341.84
2022-08-14T11:07:00.366Z,94337.66
2022-08-14T11:09:32.154Z,94350.25
2022-08-14T11:12:33.732Z,94342.28
2022-08-14T11:15:02.638Z,94347.41
2022-08-14T11:17:34.032Z,94353.13
2022-08-14T11:20:03.504Z,94352.13
2022-08-14T11:22:56.267Z,94347.13
2022-08-14T11:25:21.364Z,94336.78
2022-08-14T11:27:49.167Z,94343.34
2022-08-14T11:30:51.808Z,94334.84
2022-08-14T11:33:07.620Z,94343.16
2022-08-14T11:35:47.236Z,94331.72
2022-08-14T11:38:16.395Z,94326.94
2022-08-14T11:40:47.275Z,94337.88
2022-08-14T11:43:16.538Z,94329.84
2022-08-14T11:45:47.985Z,94344.19
2022-08-14T11:49:02.969Z,94340.41
2022-08-14T11:51:24.136Z,94341.09
2022-08-14T11:53:54.329Z,94342.50
2022-08-14T11:56:25.545Z,94344.31
2022-08-14T11:58:57.337Z,94326.53
2022-08-14T12:01:28.612Z,94332.94
2022-08-14T12:03:58.717Z,94333.53
2022-08-14T12:06:39.620Z,94330.25
2022-08-14T12:09:08.325Z,94340.78
2022-08-14T12:11:43.146Z,94330.69
2022-08-14T12:14:30.118Z,94309.53
2022-08-14T12:17:09.362Z,94335.16
2022-08-14T12:19:54.050Z,94332.81
2022-08-14T12:22:44.155Z,94323.19
2022-08-14T12:25:19.668Z,94315.50
2022-08-14T12:27:52.733Z,94306.81
2022-08-14T12:30:43.378Z,94310.53
2022-08-14T12:33:31.017Z,94299.56
2022-08-14T12:36:05.840Z,94305.09
2022-08-14T12:38:43.967Z,94306.97
2022-08-14T12:41:24.191Z,94308.56
2022-08-14T12:43:59.745Z,94313.78
2022-08-14T12:46:47.534Z,94312.34
2022-08-14T12:49:17.822Z,94306.16
2022-08-14T12:51:56.647Z,94307.16
2022-08-14T12:54:28.131Z,94284.19
2022-08-14T12:57:07.132Z,94295.22
2022-08-14T12:59:37.234Z,94286.16
2022-08-14T13:02:25.910Z,94282.53
2022-08-14T13:04:54.191Z,94274.03
2022-08-14T13:07:21.107Z,94277.56
2022-08-14T13:09:54.732Z,94266.22
2022-08-14T13:12:35.003Z,94266.16
2022-08-14T13:15:10.207Z,94264.19
2022-08-14T13:17:44.675Z,94256.34
2022-08-14T13:20:23.364Z,94249.91
2022-08-14T13:22:53.355Z,94253.88
2022-08-14T13:25:24.347Z,94261.88
2022-08-14T13:27:55.386Z,94264.66
2022-08-14T13:30:27.544Z,94266.81
2022-08-14T13:32:57.664Z,94270.47
2022-08-14T13:35:25.618Z,94266.44
2022-08-14T13:37:53.737Z,94267.13
2022-08-14T13:40:26.436Z,94270.91
2022-08-14T13:42:57.251Z,94262.56
2022-08-14T13:45:33.886Z,94274.69
2022-08-14T13:48:18.427Z,94265.72
2022-08-14T13:51:03.845Z,94256.47
2022-08-14T13:53:37.813Z,94254.56
2022-08-14T13:56:06.717Z,94256.69
2022-08-14T13:58:47.080Z,94252.72
2022-08-14T14:01:18.236Z,94249.63
2022-08-14T14:03:50.110Z,94253.81
2022-08-14T14:06:19.244Z,94245.81
2022-08-14T14:08:49.399Z,94248.75
2022-08-14T14:11:23.959Z,94248.09
2022-08-14T14:13:55.581Z,94256.66
2022-08-14T14:16:30.336Z,94249.03
2022-08-14T14:19:09.563Z,94268.59
2022-08-14T14:21:38.163Z,94272.59
2022-08-14T14:24:08.149Z,94275.84
2022-08-14T14:26:46.559Z,94268.25
2022-08-14T14:29:14.831Z,94265.34
2022-08-14T14:31:46.985Z,94256.06
2022-08-14T14:34:29.132Z,94277.91
2022-08-14T14:37:03.252Z,94283.19
2022-08-14T14:39:31.794Z,94283.56
2022-08-14T14:42:06.147Z,94269.91
2022-08-14T14:44:36.042Z,94263.84
2022-08-14T14:47:03.122Z,94263.25
2022-08-14T14:49:51.012Z,94261.28
2022-08-14T14:52:27.727Z,94266.50
2022-08-14T14:54:58.294Z,94262.88
2022-08-14T14:57:35.259Z,94258.22
2022-08-14T15:00:12.706Z,94262.97
2022-08-14T15:02:49.918Z,94267.94
2022-08-14T15:05:20.181Z,94271.91
2022-08-14T15:07:49.866Z,94268.94
2022-08-14T15:10:28.215Z,94272.28
2022-08-14T15:13:04.272Z,94261.34
2022-08-14T15:15:37.037Z,94255.75
2022-08-14T15:18:36.679Z,94249.44
2022-08-14T15:20:57.658Z,94264.56
2022-08-14T15:23:32.469Z,94251.31
2022-08-14T15:26:13.373Z,94244.94
2022-08-14T15:29:03.070Z,94257.13
2022-08-14T15:31:35.001Z,94254.72
2022-08-14T15:34:43.402Z,94258.97
2022-08-14T15:37:02.177Z,94251.00
2022-08-14T15:39:33.841Z,94266.13
2022-08-14T15:42:14.904Z,94267.81
2022-08-14T15:44:58.259Z,94256.81
2022-08-14T15:47:30.775Z,94262.81
2022-08-14T15:50:04.839Z,94268.00
2022-08-14T15:52:37.470Z,94258.53
2022-08-14T15:55:14.789Z,94273.03
2022-08-14T15:58:02.500Z,94272.13
2022-08-14T16:00:53.883Z,94273.47
2022-08-14T16:03:27.730Z,94273.41
2022-08-14T16:06:10.766Z,94269.91
2022-08-14T16:08:43.597Z,94274.59
2022-08-14T16:11:11.705Z,94274.41
2022-08-14T16:13:44.485Z,94269.78
2022-08-14T16:16:49.741Z,94267.38
2022-08-14T16:19:00.975Z,94260.03
2022-08-14T16:21:31.613Z,94241.28
2022-08-14T16:24:00.424Z,94249.09
2022-08-14T16:26:29.786Z,94245.31
2022-08-14T16:29:09.356Z,94244.00
2022-08-14T16:31:39.996Z,94249.38
2022-08-14T16:34:45.777Z,94241.22
2022-08-14T16:37:01.532Z,94243.00
2022-08-14T16:39:29.341Z,94230.00
2022-08-14T16:42:00.378Z,94227.72
2022-08-14T16:44:40.945Z,94211.59
2022-08-14T16:47:12.887Z,94214.13
2022-08-14T16:50:03.827Z,94231.63
2022-08-14T16:52:44.337Z,94256.25
2022-08-14T16:55:14.007Z,94227.25
2022-08-14T16:57:58.855Z,94245.97
2022-08-14T17:00:43.457Z,94253.41
2022-08-14T17:03:12.264Z,94254.69
2022-08-14T17:05:43.439Z,94253.59
2022-08-14T17:08:33.074Z,94261.38
2022-08-14T17:11:12.516Z,94266.66
2022-08-14T17:13:57.784Z,94258.88
2022-08-14T17:16:37.649Z,94260.25
2022-08-14T17:19:09.958Z,94261.34
2022-08-14T17:21:41.229Z,94264.91
2022-08-14T17:24:56.788Z,94254.00
2022-08-14T17:27:04.085Z,94260.38
2022-08-14T17:29:35.127Z,94266.16
2022-08-14T17:32:29.398Z,94260.34
2022-08-14T17:35:10.149Z,94266.69
2022-08-14T17:37:45.243Z,94253.09
2022-08-14T17:40:23.844Z,94269.59
2022-08-14T17:42:58.877Z,94273.00
2022-08-14T17:45:41.250Z,94267.69
2022-08-14T17:49:16.174Z,94271.84
2022-08-14T17:51:24.205Z,94288.31
2022-08-14T17:54:03.045Z,94290.13
2022-08-14T17:56:33.053Z,94290.72
2022-08-14T17:59:05.922Z,94287.44
2022-08-14T18:01:37.373Z,94284.88
2022-08-14T18:04:25.126Z,94279.53
2022-08-14T18:07:16.236Z,94293.63
2022-08-14T18:09:57.422Z,94293.25
2022-08-14T18:12:36.731Z,94274.63
2022-08-14T18:15:16.699Z,94285.69
2022-08-14T18:17:52.712Z,94273.78
2022-08-14T18:21:24.107Z,94291.56
2022-08-14T18:23:10.407Z,94290.00
2022-08-14T18:25:52.585Z,94295.88
2022-08-14T18:28:51.303Z,94276.56
2022-08-14T18:31:21.657Z,94290.00
2022-08-14T18:34:31.715Z,94274.56
2022-08-14T18:37:14.315Z,94295.28
2022-08-14T18:40:01.016Z,94290.22
2022-08-14T18:42:36.482Z,94305.47
2022-08-14T18:45:15.634Z,94303.31
2022-08-14T18:51:07.483Z,94288.16
2022-08-14T18:53:53.472Z,94290.09
2022-08-14T18:56:57.950Z,94298.03
2022-08-14T18:59:35.685Z,94307.59
2022-08-14T19:02:30.200Z,94311.22
2022-08-14T19:04:59.753Z,94308.69
2022-08-14T19:07:33.926Z,94306.53
2022-08-14T19:10:05.964Z,94302.31
2022-08-14T19:13:00.563Z,94311.13
2022-08-14T19:15:31.430Z,94315.44
2022-08-14T19:18:14.548Z,94314.75
2022-08-14T19:20:56.890Z,94310.84
2022-08-14T19:23:43.266Z,94305.66
2022-08-14T19:26:54.329Z,94297.75
2022-08-14T19:29:23.514Z,94311.44
2022-08-14T19:31:55.353Z,94307.31
2022-08-14T19:34:52.408Z,94311.63
2022-08-14T19:37:52.517Z,94312.22
2022-08-14T19:40:42.831Z,94319.16
2022-08-14T19:43:55.838Z,94311.72
2022-08-14T19:46:37.890Z,94306.44
2022-08-14T19:48:57.373Z,94314.16
2022-08-14T19:51:24.619Z,94321.19
2022-08-14T19:54:13.638Z,94324.50
2022-08-14T19:56:45.892Z,94329.88
2022-08-14T19:59:19.281Z,94330.94
2022-08-14T20:01:51.336Z,94341.94
2022-08-14T20:04:46.113Z,94340.13
2022-08-14T20:07:56.280Z,94337.78
2022-08-14T20:11:07.842Z,94324.69
2022-08-14T20:13:32.227Z,94331.53
2022-08-14T20:16:11.971Z,94323.69
2022-08-14T20:18:51.574Z,94328.09
2022-08-14T20:21:21.766Z,94320.97
2022-08-14T20:23:49.569Z,94322.03
2022-08-14T20:26:30.782Z,94301.22
2022-08-14T20:29:04.359Z,94323.41
2022-08-14T20:31:37.424Z,94322.50
2022-08-14T20:34:18.638Z,94324.03
2022-08-14T20:37:04.722Z,94336.25
2022-08-14T20:39:54.760Z,94329.44
2022-08-14T20:42:43.333Z,94339.56
2022-08-14T20:45:21.483Z,94345.19
2022-08-14T20:48:09.086Z,94345.53
2022-08-14T20:50:36.771Z,94341.00
2022-08-14T20:53:35.732Z,94345.34
2022-08-14T20:56:28.520Z,94331.78
2022-08-14T20:58:57.409Z,94338.03
2022-08-14T21:01:24.314Z,94341.16
2022-08-14T21:04:01.403Z,94343.06
2022-08-14T21:07:22.649Z,94344.41
2022-08-14T21:09:21.294Z,94350.47
2022-08-14T21:12:08.391Z,94333.44
2022-08-14T21:14:55.185Z,94337.88
2022-08-14T21:17:25.474Z,94358.53
2022-08-14T21:19:53.507Z,94326.28
2022-08-14T21:22:20.323Z,94340.66
2022-08-14T21:24:48.428Z,94346.84
2022-08-14T21:27:20.433Z,94347.41
2022-08-14T21:29:54.075Z,94345.25
2022-08-14T21:32:46.852Z,94348.00
2022-08-14T21:35:17.821Z,94344.28
2022-08-14T21:37:46.103Z,94333.31
2022-08-14T21:40:40.351Z,94338.59
2022-08-14T21:43:05.687Z,94341.72
2022-08-14T21:45:35.814Z,94331.78
2022-08-14T21:48:10.547Z,94337.03
2022-08-14T21:51:00.343Z,94330.81
2022-08-14T21:53:33.896Z,94333.59
2022-08-14T21:56:03.550Z,94324.78
2022-08-14T21:58:52.043Z,94322.16
2022-08-14T22:01:20.352Z,94323.72
2022-08-14T22:03:55.120Z,94317.94
2022-08-14T22:06:29.063Z,94313.16
2022-08-14T22:08:58.230Z,94333.84
2022-08-14T22:11:26.124Z,94330.16
2022-08-14T22:14:02.397Z,94333.28
2022-08-14T22:17:02.292Z,94326.84
2022-08-14T22:19:43.256Z,94323.78
2022-08-14T22:22:14.848Z,94322.56
2022-08-14T22:24:53.192Z,94326.03
2022-08-14T22:27:21.321Z,94326.88
2022-08-14T22:29:54.979Z,94326.34
2022-08-14T22:32:56.279Z,94323.22
2022-08-14T22:35:15.906Z,94325.84
2022-08-14T22:37:44.543Z,94324.03
2022-08-14T22:40:46.121Z,94320.66
2022-08-14T22:43:08.410Z,94310.13
2022-08-14T22:45:38.016Z,94322.16
2022-08-14T22:48:11.081Z,94322.16
2022-08-14T22:50:48.989Z,94325.34
2022-08-14T22:53:21.159Z,94322.50
2022-08-14T22:55:52.331Z,94311.81
2022-08-14T22:58:30.349Z,94323.56
2022-08-14T23:01:00.248Z,94319.38
2022-08-14T23:03:27.174Z,94327.53
2022-08-14T23:05:57.301Z,94315.75
2022-08-14T23:09:01.362Z,94309.81
2022-08-14T23:11:13.145Z,94319.41
2022-08-14T23:13:43.530Z,94314.16
2022-08-14T23:16:11.080Z,94314.94
2022-08-14T23:18:53.779Z,94307.69
2022-08-14T23:21:24.658Z,94318.66
2022-08-14T23:23:55.112Z,94320.78
2022-08-14T23:26:47.843Z,94302.94
2022-08-14T23:29:15.685Z,94313.44
2022-08-14T23:31:45.337Z,94306.91
2022-08-14T23:34:20.848Z,94310.81
2022-08-14T23:36:55.543Z,94303.19
2022-08-14T23:39:31.091Z,94306.56
2022-08-14T23:42:06.293Z,94321.09
2022-08-14T23:44:36.919Z,94320.38
2022-08-14T23:47:11.734Z,94322.53
2022-08-14T23:50:01.242Z,94320.53
2022-08-14T23:53:04.057Z,94327.66
2022-08-14T23:55:24.911Z,94315.44
2022-08-14T23:57:57.612Z,94324.84
